CMB819 Details

Departure: Daniel K Inouye International Airport (PHNL)
Arrival: Travis Air Force Base (KSUU) at N/A
Route: MKK4 CLUTS R465 CINNY ROVUE OSVEE1
Notes: USTRANSCOM CONTRACT FLIGHT


Current Weather Information
PHNL 230753Z 06008KT 10SM FEW024 27/19 A3002 RMK AO2 SLP164 T02720194
KSUU 230756Z AUTO 00000KT 10SM CLR 16/07 A3003 RMK AO2 SLP176 T01550070 403140081 $